»·PEaware :: DAL1803 KSAN-KLAX

DAL1803 :: KSAN-KLAX

FLIGHT INFORMATION

Flight Status: Arrived
Operator:
Delta Air Lines
More flights by this operator :: More flights under this callsign
Pilot: Jake L. (16722)
Aircraft: EMBRAER EMB-170/175
(E170)
More flights by this aircraft type
Origin: KSAN San Diego Intl-Lindbergh
United States
Destination: KLAX Los Angeles Intl
United States
More flights between these airports :: More routes between these airports
Route: +PEBLE6 SLI
File this flight plan on PilotEdge
Remarks:
Altitude:
(Current/Filed)
10,000ft
Speed:
(Current/Filed)
350kts
Departed: 21-Sep-17 04:56 PM
Arrived: 21-Sep-17 05:24 PM
Distance/Time
Traveled:
95nm/0:28
Distance/Time
To Go:
Arrived

Flight Plot

Page will automatically refresh every two minutes.


Map Options




Map Legend


Flown Route
Filed Route
Departure Airport
Arrival Airport
Navaid (VOR, NDB)
Fix

Horizontal Profiles

Position Reports

Time Latitude Longitude Heading Altitude Ground
Speed
21-Sep-17 16:43 32.733340 -117.204489 106 26ft 0kts
21-Sep-17 16:44 32.733340 -117.204489 106 26ft 0kts
21-Sep-17 16:45 32.733340 -117.204489 106 26ft 0kts
21-Sep-17 16:46 32.733340 -117.204489 106 26ft 0kts
21-Sep-17 16:47 32.733340 -117.204489 106 26ft 0kts
21-Sep-17 16:48 32.733340 -117.204489 106 26ft 0kts
21-Sep-17 16:49 32.733340 -117.204489 106 26ft 0kts
21-Sep-17 16:50 32.733381 -117.204828 86 26ft 2kts
21-Sep-17 16:51 32.733100 -117.205587 47 26ft 0kts
21-Sep-17 16:52 32.733357 -117.205463 355 26ft 8kts
21-Sep-17 16:53 32.735876 -117.203454 107 26ft 11kts
21-Sep-17 16:54 32.734534 -117.197992 106 26ft 26kts
21-Sep-17 16:55 32.732531 -117.189703 106 26ft 25kts
21-Sep-17 16:56 32.730944 -117.183146 106 26ft 14kts
21-Sep-17 16:57 32.729493 -117.177125 104 26ft 9kts
21-Sep-17 16:58 32.729477 -117.176852 82 26ft 0kts
21-Sep-17 16:59 32.730261 -117.175983 301 26ft 9kts
21-Sep-17 17:00 32.738798 -117.212817 283 1189ft 176kts
21-Sep-17 17:01 32.765277 -117.271831 302 3913ft 239kts
21-Sep-17 17:02 32.804268 -117.340144 300 8051ft 254kts
21-Sep-17 17:03 32.847209 -117.420936 298 9845ft 334kts
21-Sep-17 17:04 32.907115 -117.492320 312 9960ft 287kts
21-Sep-17 17:05 32.963172 -117.554669 312 9967ft 268kts
21-Sep-17 17:06 33.015527 -117.612277 312 9970ft 266kts
21-Sep-17 17:07 33.069665 -117.672014 313 9951ft 260kts
21-Sep-17 17:08 33.118270 -117.735344 304 9950ft 259kts
21-Sep-17 17:09 33.162071 -117.803480 304 9950ft 259kts
21-Sep-17 17:10 33.222458 -117.850459 336 9969ft 271kts
21-Sep-17 17:11 33.294208 -117.876812 338 9892ft 271kts
21-Sep-17 17:12 33.365832 -117.902679 338 9455ft 267kts
21-Sep-17 17:13 33.437036 -117.928480 338 8960ft 266kts
21-Sep-17 17:14 33.507626 -117.954100 338 8179ft 264kts
21-Sep-17 17:15 33.577745 -117.979513 339 7178ft 264kts
21-Sep-17 17:16 33.647310 -118.004979 339 6510ft 256kts
21-Sep-17 17:17 33.713147 -118.029020 339 5414ft 241kts
21-Sep-17 17:18 33.773661 -118.051216 339 5001ft 213kts
21-Sep-17 17:19 33.833514 -118.048702 2 4987ft 217kts
21-Sep-17 17:20 33.893364 -118.039778 2 4987ft 217kts
21-Sep-17 17:21 33.952291 -118.037666 320 4982ft 204kts
21-Sep-17 17:22 33.972477 -118.099516 283 5003ft 201kts
21-Sep-17 17:23 33.976747 -118.166109 256 4485ft 204kts
21-Sep-17 17:24 33.947425 -118.221683 254 3377ft 179kts
21-Sep-17 17:25 33.946280 -118.274629 265 2015ft 134kts
21-Sep-17 17:26 33.943223 -118.320173 263 1144ft 130kts
21-Sep-17 17:27 33.939272 -118.364397 260 423ft 132kts
21-Sep-17 17:28 33.935741 -118.399864 260 137ft 40kts
21-Sep-17 17:29 33.936398 -118.403415 297 137ft 4kts
21-Sep-17 17:30 33.936631 -118.403814 308 137ft 8kts
21-Sep-17 17:31 33.939669 -118.405938 317 137ft 9kts
21-Sep-17 17:32 33.939761 -118.406035 319 137ft 0kts
21-Sep-17 17:33 33.939761 -118.406035 319 137ft 0kts
21-Sep-17 17:34 33.939761 -118.406035 319 137ft 0kts
21-Sep-17 17:35 33.939761 -118.406035 319 137ft 0kts
21-Sep-17 17:36 33.939761 -118.406035 319 137ft 0kts
21-Sep-17 17:37 33.939761 -118.406035 319 137ft 0kts
21-Sep-17 17:38 33.939761 -118.406035 319 137ft 0kts
21-Sep-17 17:39 33.939761 -118.406035 319 137ft 0kts

Navigation Log

Ident Type
1. KSAN Airport
2. MELDY Fix
3. PEBLE Fix
4. SLI Navaid
5. KLAX Airport